Dalston, United Kingdom
Current Conditions -  °F | °C
As of 9:20 PM on Friday 31 Oct 2014 (Local Time) from EGLC Reporting Station
Clear Clear  
Wind Chill: 64°   Ceiling: Unl
Heat Index: 64°   Visibility: 6mi
Dew Point: 54°   Wind: 9mph
Humidity: 68%   Direction: 200°SSW
Pressure: 29.97"   Gusts: NA
Location:  51.54°N, 0.06°W
Report Text: EGLC 312120Z 20008KT CAVOK 18/12 Q1015
Loading
Personal Weather Stations






























Interactive Weather Map
Tropical Storm Tracking
New forecast layout! Learn more

10-Day Weather Forecast

Advertisements
Track Severe Weather on mobile